METAR Data
IDs: Format: Raw Decoded Include TAF

Data at: 0128 UTC 10 Dec 2022

METAR for:K4I3 (Mount Vernon/Knox Cn, OH, US)
Text:K4I3 100115Z AUTO 35004KT 5SM -RA SCT008 SCT013 BKN030 04/03 A3016 RMK AO2 P0002
Temperature: 4.0°C ( 39°F)
Dewpoint: 3.0°C ( 37°F) [RH = 93%]
Pressure (altimeter):30.16 inches Hg (1021.4 mb)
Winds:from the N (350 degrees) at 5 MPH (4 knots; 2.1 m/s)
Visibility: 5 sm ( 8 km)
Ceiling:3000 feet AGL
Clouds: scattered clouds at 800 feet AGL, scattered clouds at 1300 feet AGL, broken clouds at 3000 feet AGL
Weather:-RA (light rain)
QC Flag:automated observation with no human augmentation